Terminal Aerodrome Forecast
Issued by NWS

Home | Current Version | Previous Version | Text Only | Print | Product List | Glossary On
Versions: 1 2 3 4 5 6 7 8 9 10 11 12 13 14 15 16
000
FTUS45 KPSR 301128
TAFBLH
TAF
KBLH 301128Z 3012/0112 19011KT P6SM FEW110
     FM301800 33012G20KT P6SM SCT080
     FM010300 33008KT P6SM SKC
     FM011000 VRB05KT P6SM SKC=

USA.gov is the U.S. government's official web portal to all federal, state and local government web resources and services.